PWSweather.com
Personal Weather Stations
Station Observations
KILDUNLA3
Devonshire, Dunlap, IL 61525

DevonshireDunlap, IL 61525

Lat: 40.82881546, Lon: -89.62155914

Elevation: 758

Station Type: Oregon Scientific WMR100

http://jimroal.com

Latest ConditionsUpdated 9:15:48 PM CDT Monday, Mar 27, 2017
Currently Today's Max Today's Min Today's Average
Temperature 51.1°F10.6°C 51.6°F10.9°C 51.1°F10.6°C 51.2°F10.7°C
Dew Point 46.1°F7.8°C 46.1°F7.8°C 45.2°F7.3°C 45.6°F7.6°C
Winds 3.6 mph N5.8 kmh N 4.5 mph NNW7.2 kmh NNW - 3.7 mph 6.0 kmh
Wind Gusts 6.0 mph9.7 kmh 6.3 mph10.1 kmh - -
Humidity 83% 83% 79% 81%
Pressure -338605.1 mb 0.00 in0.0 mb 0.00 in0.0 mb -
Precipitation - 0.91 in23.1 mm - -
Hour Temp Dew Point Humidity Winds Wind Gusts Pressure Precip Precip Rate Daily Precip Total
09:15 PM 51.1°F10.6°C 46.1°F7.8°C 83% 3.6 mph N5.8 kmh N 6.0 mph9.7 kmh -338605.1 mb 0.00 in0.0 mm 0.00 in0.0 mm 0.91 in23.1 mm
09:10 PM 51.1°F10.6°C 46.1°F7.8°C 83% 3.4 mph N5.5 kmh N 6.3 mph10.1 kmh -338605.1 mb 0.00 in0.0 mm 0.00 in0.0 mm 0.91 in23.1 mm
09:05 PM 51.1°F10.6°C 46.1°F7.8°C 83% 4.2 mph N6.8 kmh N 6.3 mph10.1 kmh -338605.1 mb 0.00 in0.0 mm 0.00 in0.0 mm 0.91 in23.1 mm
09:00 PM 51.1°F10.6°C 46.1°F7.8°C 83% 4.5 mph NNW7.2 kmh NNW 5.6 mph9.0 kmh -338605.1 mb 0.00 in0.0 mm 0.00 in0.0 mm 0.91 in23.1 mm
08:55 PM 51.1°F10.6°C 45.9°F7.7°C 83% 3.6 mph N5.8 kmh N 5.8 mph9.3 kmh -338605.1 mb 0.00 in0.0 mm 0.00 in0.0 mm 0.91 in23.1 mm
08:50 PM 51.1°F10.6°C 45.8°F7.7°C 82% 4.3 mph N6.9 kmh N 5.8 mph9.3 kmh -338605.1 mb 0.00 in0.0 mm 0.00 in0.0 mm 0.91 in23.1 mm
08:45 PM 51.1°F10.6°C 45.8°F7.7°C 82% 3.5 mph N5.6 kmh N 5.6 mph9.0 kmh -338605.1 mb 0.00 in0.0 mm 0.00 in0.0 mm 0.91 in23.1 mm
08:40 PM 51.1°F10.6°C 45.8°F7.7°C 82% 3.2 mph N5.1 kmh N 5.6 mph9.0 kmh -338605.1 mb 0.00 in0.0 mm 0.00 in0.0 mm 0.91 in23.1 mm
08:35 PM 51.1°F10.6°C 45.5°F7.5°C 81% 4.0 mph N6.4 kmh N 5.4 mph8.7 kmh -338605.1 mb 0.91 in23.1 mm 0.00 in0.0 mm 0.91 in23.1 mm
08:30 PM 51.1°F10.6°C 45.5°F7.5°C 81% 3.1 mph N5.0 kmh N 5.6 mph9.0 kmh -338605.1 mb 0.91 in23.1 mm 0.00 in0.0 mm 0.91 in23.1 mm
08:25 PM 51.2°F10.7°C 45.5°F7.5°C 81% 3.8 mph N6.1 kmh N 5.6 mph9.0 kmh -338605.1 mb 0.91 in23.1 mm 0.00 in0.0 mm 0.91 in23.1 mm
08:20 PM 51.3°F10.7°C 45.6°F7.6°C 81% 2.9 mph N4.7 kmh N 5.6 mph9.0 kmh -338605.1 mb 0.91 in23.1 mm 0.00 in0.0 mm 0.91 in23.1 mm
08:15 PM 51.3°F10.7°C 45.6°F7.6°C 81% 3.7 mph N6.0 kmh N 6.3 mph10.1 kmh -338605.1 mb 0.91 in23.1 mm 0.00 in0.0 mm 0.91 in23.1 mm
08:10 PM 51.3°F10.7°C 45.4°F7.4°C 80% 3.6 mph NNW5.8 kmh NNW 6.3 mph10.1 kmh -338605.1 mb 0.91 in23.1 mm 0.00 in0.0 mm 0.91 in23.1 mm
08:05 PM 51.3°F10.7°C 45.3°F7.4°C 80% 3.4 mph N5.5 kmh N 6.3 mph10.1 kmh -338605.1 mb 0.91 in23.1 mm 0.00 in0.0 mm 0.91 in23.1 mm
08:00 PM 51.4°F10.8°C 45.4°F7.4°C 80% 4.0 mph N6.4 kmh N 6.3 mph10.1 kmh -338605.1 mb 0.91 in23.1 mm 0.00 in0.0 mm 0.91 in23.1 mm
07:55 PM 51.4°F10.8°C 45.5°F7.5°C 80% 3.5 mph N5.6 kmh N 4.9 mph7.9 kmh -338605.1 mb 0.91 in23.1 mm 0.00 in0.0 mm 0.91 in23.1 mm
07:50 PM 51.4°F10.8°C 45.2°F7.3°C 79% 3.6 mph N5.8 kmh N 5.6 mph9.0 kmh -338605.1 mb 0.91 in23.1 mm 0.00 in0.0 mm 0.91 in23.1 mm
07:45 PM 51.5°F10.8°C 45.3°F7.4°C 79% 3.7 mph N6.0 kmh N 5.6 mph9.0 kmh -338605.1 mb 0.91 in23.1 mm 0.00 in0.0 mm 0.91 in23.1 mm
07:40 PM 51.6°F10.9°C 45.3°F7.4°C 79% 4.0 mph N6.4 kmh N 5.4 mph8.7 kmh -338605.1 mb 0.91 in23.1 mm 1.37 in34.8 mm 0.91 in23.1 mm